createdAt,value
2023-02-03T00:00:10.708Z,67.90
2023-02-03T00:02:38.585Z,68.52
2023-02-03T00:05:07.427Z,68.39
2023-02-03T00:07:36.164Z,68.32
2023-02-03T00:10:05.031Z,68.03
2023-02-03T00:12:33.243Z,68.29
2023-02-03T00:15:01.312Z,67.98
2023-02-03T00:17:30.597Z,68.32
2023-02-03T00:19:58.504Z,67.81
2023-02-03T00:22:26.453Z,68.32
2023-02-03T00:24:54.337Z,68.08
2023-02-03T00:27:22.249Z,68.35
2023-02-03T00:29:50.119Z,67.82
2023-02-03T00:32:18.193Z,68.80
2023-02-03T00:34:47.502Z,67.84
2023-02-03T00:37:15.791Z,68.51
2023-02-03T00:39:43.737Z,67.75
2023-02-03T00:42:11.600Z,68.71
2023-02-03T00:44:39.478Z,68.38
2023-02-03T00:47:07.442Z,68.45
2023-02-03T00:49:35.632Z,68.63
2023-02-03T00:52:05.409Z,67.74
2023-02-03T00:54:33.813Z,67.81
2023-02-03T00:57:01.854Z,67.90
2023-02-03T00:59:29.734Z,68.48
2023-02-03T01:02:00.408Z,68.23
2023-02-03T01:04:28.389Z,68.15
2023-02-03T01:06:58.196Z,68.35
2023-02-03T01:09:27.921Z,69.19
2023-02-03T01:11:56.117Z,68.38
2023-02-03T01:14:24.151Z,69.16
2023-02-03T01:16:52.180Z,68.41
2023-02-03T01:19:20.167Z,68.58
2023-02-03T01:21:48.011Z,68.03
2023-02-03T01:24:16.123Z,68.02
2023-02-03T01:26:45.722Z,68.75
2023-02-03T01:29:13.620Z,68.32
2023-02-03T01:31:43.064Z,68.67
2023-02-03T01:34:14.098Z,69.04
2023-02-03T01:36:41.945Z,68.94
2023-02-03T01:39:09.867Z,69.25
2023-02-03T01:41:40.825Z,68.74
2023-02-03T01:44:47.630Z,68.58
2023-02-03T01:47:23.037Z,68.59
2023-02-03T01:49:56.666Z,68.92
2023-02-03T01:52:24.916Z,68.43
2023-02-03T01:54:58.164Z,69.38
2023-02-03T01:57:30.729Z,68.94
2023-02-03T02:00:00.879Z,68.92
2023-02-03T02:02:33.597Z,69.38
2023-02-03T02:05:06.282Z,70.04
2023-02-03T02:07:35.810Z,69.17
2023-02-03T02:10:04.426Z,69.19
2023-02-03T02:12:32.352Z,69.29
2023-02-03T02:15:01.992Z,69.40
2023-02-03T02:17:53.189Z,69.02
2023-02-03T02:20:52.555Z,68.77
2023-02-03T02:24:07.767Z,69.11
2023-02-03T02:27:06.962Z,70.07
2023-02-03T02:30:25.769Z,70.58
2023-02-03T02:33:21.710Z,71.23
2023-02-03T02:35:58.645Z,70.54
2023-02-03T02:38:39.568Z,69.69
2023-02-03T02:41:12.310Z,69.40
2023-02-03T02:43:43.947Z,69.15
2023-02-03T02:46:14.898Z,69.46
2023-02-03T02:48:50.853Z,69.21
2023-02-03T02:51:20.041Z,68.40
2023-02-03T02:53:53.314Z,68.40
2023-02-03T02:56:22.080Z,68.86
2023-02-03T02:58:51.796Z,68.59
2023-02-03T03:01:20.165Z,68.45
2023-02-03T03:03:49.804Z,68.52
2023-02-03T03:06:23.483Z,68.17
2023-02-03T03:08:57.607Z,68.20
2023-02-03T03:11:30.604Z,68.59
2023-02-03T03:13:59.248Z,68.29
2023-02-03T03:16:31.724Z,68.28
2023-02-03T03:19:03.886Z,68.25
2023-02-03T03:21:37.637Z,68.92
2023-02-03T03:24:10.662Z,69.19
2023-02-03T03:26:43.333Z,69.17
2023-02-03T03:29:17.058Z,69.15
2023-02-03T03:31:46.058Z,68.45
2023-02-03T03:34:17.181Z,68.61
2023-02-03T03:36:49.483Z,68.60
2023-02-03T03:39:24.567Z,68.20
2023-02-03T03:42:00.147Z,68.51
2023-02-03T03:44:31.602Z,68.07
2023-02-03T03:47:06.849Z,68.46
2023-02-03T03:49:37.682Z,68.35
2023-02-03T03:52:10.370Z,68.94
2023-02-03T03:54:41.365Z,68.99
2023-02-03T03:57:15.476Z,69.61
2023-02-03T03:59:50.561Z,69.68
2023-02-03T04:02:21.059Z,69.84
2023-02-03T04:04:51.254Z,69.92
2023-02-03T04:07:20.341Z,71.00
2023-02-03T04:09:48.241Z,71.23
2023-02-03T04:12:23.694Z,71.29
2023-02-03T04:14:51.858Z,70.85
2023-02-03T04:17:20.338Z,70.42
2023-02-03T04:19:50.183Z,70.18
2023-02-03T04:22:18.122Z,69.14
2023-02-03T04:24:45.964Z,69.16
2023-02-03T04:27:16.474Z,68.70
2023-02-03T04:29:44.391Z,68.87
2023-02-03T04:32:12.263Z,68.15
2023-02-03T04:34:40.127Z,68.52
2023-02-03T04:37:09.906Z,68.03
2023-02-03T04:39:37.874Z,68.43
2023-02-03T04:42:05.868Z,69.50
2023-02-03T04:44:33.971Z,69.90
2023-02-03T04:47:01.826Z,70.22
2023-02-03T04:49:32.407Z,70.48
2023-02-03T04:52:00.289Z,69.99
2023-02-03T04:54:29.542Z,70.29
2023-02-03T04:56:57.649Z,70.04
2023-02-03T04:59:25.606Z,70.05
2023-02-03T05:01:53.650Z,69.80
2023-02-03T05:04:21.626Z,70.15
2023-02-03T05:06:49.737Z,70.32
2023-02-03T05:09:17.936Z,70.37
2023-02-03T05:11:47.422Z,70.36
2023-02-03T05:14:15.596Z,69.85
2023-02-03T05:16:43.707Z,69.74
2023-02-03T05:19:11.904Z,69.99
2023-02-03T05:21:39.901Z,69.76
2023-02-03T05:24:08.348Z,70.48
2023-02-03T05:26:36.795Z,70.79
2023-02-03T05:29:06.248Z,71.37
2023-02-03T05:31:34.925Z,71.07
2023-02-03T05:34:03.176Z,70.19
2023-02-03T05:36:31.086Z,69.73
2023-02-03T05:38:59.162Z,69.66
2023-02-03T05:41:44.757Z,69.38
2023-02-03T05:44:14.102Z,69.84
2023-02-03T05:46:41.965Z,70.41
2023-02-03T05:49:09.881Z,70.46
2023-02-03T05:51:37.790Z,70.90
2023-02-03T05:54:05.921Z,71.17
2023-02-03T05:56:33.971Z,71.25
2023-02-03T05:59:01.861Z,71.42
2023-02-03T06:01:31.269Z,71.38
2023-02-03T06:03:59.398Z,71.12
2023-02-03T06:06:33.037Z,70.90
2023-02-03T06:09:01.276Z,71.30
2023-02-03T06:11:29.826Z,71.81
2023-02-03T06:13:58.891Z,71.64
2023-02-03T06:16:27.616Z,72.93
2023-02-03T06:18:59.579Z,72.63
2023-02-03T06:21:27.803Z,71.74
2023-02-03T06:23:56.652Z,71.36
2023-02-03T06:26:25.066Z,71.12
2023-02-03T06:28:53.142Z,71.04
2023-02-03T06:31:21.572Z,70.88
2023-02-03T06:33:49.497Z,70.57
2023-02-03T06:36:18.818Z,70.83
2023-02-03T06:38:46.703Z,70.38
2023-02-03T06:41:14.701Z,70.27
2023-02-03T06:43:42.602Z,70.33
2023-02-03T06:46:13.244Z,70.44
2023-02-03T06:48:41.146Z,70.27
2023-02-03T06:51:09.213Z,69.86
2023-02-03T06:53:38.527Z,69.67
2023-02-03T06:56:07.093Z,70.34
2023-02-03T06:58:35.027Z,70.35
2023-02-03T07:01:03.028Z,69.77
2023-02-03T07:03:30.918Z,69.56
2023-02-03T07:05:58.874Z,69.77
2023-02-03T07:08:26.920Z,69.56
2023-02-03T07:10:56.800Z,69.59
2023-02-03T07:13:24.715Z,69.24
2023-02-03T07:15:52.838Z,69.33
2023-02-03T07:18:45.541Z,69.03
2023-02-03T07:21:13.155Z,70.19
2023-02-03T07:23:41.227Z,70.31
2023-02-03T07:26:12.144Z,69.98
2023-02-03T07:28:40.280Z,69.35
2023-02-03T07:31:10.436Z,69.04
2023-02-03T07:33:38.566Z,68.73
2023-02-03T07:36:08.105Z,68.67
2023-02-03T07:38:37.940Z,68.67
2023-02-03T07:41:06.259Z,68.17
2023-02-03T07:43:35.615Z,68.50
2023-02-03T07:46:03.702Z,68.25
2023-02-03T07:48:31.728Z,68.34
2023-02-03T07:50:59.771Z,68.35
2023-02-03T07:53:27.729Z,67.93
2023-02-03T07:55:55.675Z,67.79
2023-02-03T07:58:23.701Z,67.54
2023-02-03T08:00:52.935Z,67.29
2023-02-03T08:03:20.803Z,67.32
2023-02-03T08:05:49.362Z,66.61
2023-02-03T08:08:17.489Z,66.80
2023-02-03T08:10:45.600Z,66.67
2023-02-03T08:13:13.458Z,65.71
2023-02-03T08:15:41.372Z,65.73
2023-02-03T08:18:12.619Z,65.89
2023-02-03T08:20:40.639Z,65.58
2023-02-03T08:23:08.699Z,65.17
2023-02-03T08:25:36.534Z,65.43
2023-02-03T08:28:04.715Z,64.85
2023-02-03T08:30:33.301Z,65.12
2023-02-03T08:33:01.222Z,64.86
2023-02-03T08:35:30.634Z,64.36
2023-02-03T08:37:58.499Z,64.25
2023-02-03T08:40:26.805Z,64.30
2023-02-03T08:42:55.062Z,63.71
2023-02-03T08:45:23.033Z,63.67
2023-02-03T08:47:50.988Z,63.90
2023-02-03T08:50:19.932Z,63.75
2023-02-03T08:52:49.328Z,62.47
2023-02-03T08:55:17.351Z,62.99
2023-02-03T08:57:45.968Z,63.15
2023-02-03T09:00:15.138Z,62.59
2023-02-03T09:02:43.088Z,62.59
2023-02-03T09:05:11.387Z,62.95
2023-02-03T09:07:39.567Z,62.09
2023-02-03T09:10:09.765Z,61.81
2023-02-03T09:12:37.753Z,62.14
2023-02-03T09:15:06.691Z,63.43
2023-02-03T09:17:34.625Z,63.02
2023-02-03T09:20:02.750Z,62.30
2023-02-03T09:22:30.982Z,61.89
2023-02-03T09:24:59.165Z,61.05
2023-02-03T09:27:28.463Z,60.19
2023-02-03T09:29:58.574Z,59.67
2023-02-03T09:32:26.598Z,59.28
2023-02-03T09:34:54.588Z,59.42
2023-02-03T09:37:22.597Z,59.14
2023-02-03T09:39:50.551Z,58.60
2023-02-03T09:42:38.147Z,58.75
2023-02-03T09:45:16.415Z,58.11
2023-02-03T09:47:45.497Z,57.36
2023-02-03T09:50:20.880Z,58.18
2023-02-03T09:52:50.065Z,58.10
2023-02-03T09:55:29.985Z,58.09
2023-02-03T09:58:04.894Z,57.40
2023-02-03T10:00:37.297Z,57.81
2023-02-03T10:03:09.760Z,56.60
2023-02-03T10:05:52.937Z,56.77
2023-02-03T10:08:33.014Z,56.56
2023-02-03T10:11:15.050Z,56.60
2023-02-03T10:13:54.548Z,55.69
2023-02-03T10:16:37.071Z,55.76
2023-02-03T10:19:12.017Z,56.20
2023-02-03T10:21:43.779Z,55.19
2023-02-03T10:24:16.560Z,55.02
2023-02-03T10:26:44.512Z,54.45
2023-02-03T10:29:21.402Z,54.99
2023-02-03T10:31:49.921Z,55.39
2023-02-03T10:34:19.859Z,54.54
2023-02-03T10:36:58.750Z,53.84
2023-02-03T10:39:33.487Z,53.80
2023-02-03T10:42:02.389Z,54.61
2023-02-03T10:44:40.204Z,53.74
2023-02-03T10:47:34.900Z,53.50
2023-02-03T10:50:07.618Z,53.95
2023-02-03T10:52:36.889Z,53.42
2023-02-03T10:55:08.094Z,54.01
2023-02-03T10:57:39.329Z,52.58
2023-02-03T11:00:23.752Z,53.47
2023-02-03T11:03:06.895Z,53.29
2023-02-03T11:05:35.426Z,52.51
2023-02-03T11:08:04.153Z,52.21
2023-02-03T11:10:36.262Z,52.16
2023-02-03T11:13:20.773Z,52.15
2023-02-03T11:16:02.082Z,52.15
2023-02-03T11:18:54.468Z,52.82
2023-02-03T11:21:24.593Z,52.36
2023-02-03T11:24:01.706Z,51.97
2023-02-03T11:26:33.707Z,51.60
2023-02-03T11:29:03.305Z,51.90
2023-02-03T11:31:35.387Z,52.14
2023-02-03T11:34:06.043Z,52.25
2023-02-03T11:36:36.403Z,52.03
2023-02-03T11:39:21.705Z,51.16
2023-02-03T11:41:50.230Z,51.40
2023-02-03T11:44:21.100Z,51.47
2023-02-03T11:46:54.525Z,51.06
2023-02-03T11:50:14.677Z,50.89
2023-02-03T11:53:16.073Z,50.89
2023-02-03T11:55:57.062Z,50.76
2023-02-03T11:59:00.432Z,50.59
2023-02-03T12:01:53.509Z,50.06
2023-02-03T12:04:49.203Z,49.83
2023-02-03T12:07:31.768Z,49.41
2023-02-03T12:10:09.498Z,49.73
2023-02-03T12:12:50.313Z,49.48
2023-02-03T12:15:35.592Z,48.50
2023-02-03T12:18:16.387Z,48.55
2023-02-03T12:21:03.657Z,48.97
2023-02-03T12:23:41.292Z,47.60
2023-02-03T12:26:18.363Z,49.17
2023-02-03T12:28:55.889Z,49.76
2023-02-03T12:31:31.379Z,49.01
2023-02-03T12:34:08.243Z,47.96
2023-02-03T12:36:42.514Z,47.51
2023-02-03T12:39:19.276Z,47.49
2023-02-03T12:41:51.653Z,47.14
2023-02-03T12:44:25.158Z,47.33
2023-02-03T12:46:57.731Z,47.77
2023-02-03T12:49:36.507Z,47.08
2023-02-03T12:52:13.028Z,46.56
2023-02-03T12:54:48.938Z,46.57
2023-02-03T12:57:22.458Z,46.70
2023-02-03T13:00:02.526Z,46.09
2023-02-03T13:02:36.113Z,46.06
2023-02-03T13:05:12.365Z,45.75
2023-02-03T13:07:48.366Z,45.91
2023-02-03T13:10:23.932Z,46.22
2023-02-03T13:12:56.125Z,46.00
2023-02-03T13:15:30.944Z,46.46
2023-02-03T13:18:04.463Z,45.45
2023-02-03T13:20:36.581Z,45.13
2023-02-03T13:23:11.392Z,45.65
2023-02-03T13:25:53.749Z,44.97
2023-02-03T13:28:33.266Z,45.61
2023-02-03T13:31:21.568Z,45.61
2023-02-03T13:34:07.397Z,44.96
2023-02-03T13:37:06.038Z,44.07
2023-02-03T13:39:54.086Z,44.72
2023-02-03T13:42:27.697Z,43.72
2023-02-03T13:44:58.476Z,45.25
2023-02-03T13:47:29.961Z,44.30
2023-02-03T13:50:03.137Z,44.76
2023-02-03T13:52:37.845Z,45.77
2023-02-03T13:55:09.019Z,46.10
2023-02-03T13:57:39.357Z,43.74
2023-02-03T14:00:29.603Z,44.04
2023-02-03T14:02:58.066Z,44.38
2023-02-03T14:05:44.528Z,43.90
2023-02-03T14:08:53.046Z,44.22
2023-02-03T14:11:41.782Z,44.29
2023-02-03T14:14:44.878Z,44.67
2023-02-03T14:17:56.309Z,43.35
2023-02-03T14:21:11.918Z,44.35
2023-02-03T14:23:59.371Z,44.19
2023-02-03T14:26:35.632Z,44.30
2023-02-03T14:29:06.231Z,45.01
2023-02-03T14:31:55.275Z,44.11
2023-02-03T14:34:32.204Z,43.98
2023-02-03T14:37:12.409Z,43.44
2023-02-03T14:40:19.187Z,43.95
2023-02-03T14:43:30.351Z,44.16
2023-02-03T14:46:29.630Z,45.66
2023-02-03T14:49:20.739Z,44.70
2023-02-03T14:52:08.501Z,44.11
2023-02-03T14:54:51.770Z,43.94
2023-02-03T14:57:32.784Z,44.83
2023-02-03T15:00:04.892Z,44.97
2023-02-03T15:02:36.705Z,45.01
2023-02-03T15:05:37.995Z,44.33
2023-02-03T15:08:06.492Z,44.46
2023-02-03T15:10:43.651Z,43.89
2023-02-03T15:13:25.747Z,44.53
2023-02-03T15:15:55.365Z,43.80
2023-02-03T15:18:31.129Z,45.63
2023-02-03T15:21:00.118Z,45.26
2023-02-03T15:23:30.131Z,45.18
2023-02-03T15:26:00.154Z,45.74
2023-02-03T15:28:29.395Z,46.56
2023-02-03T15:31:02.470Z,46.04
2023-02-03T15:33:33.194Z,46.43
2023-02-03T15:36:06.636Z,46.76
2023-02-03T15:38:40.218Z,46.60
2023-02-03T15:41:12.365Z,45.60
2023-02-03T15:43:43.240Z,46.86
2023-02-03T15:46:19.501Z,46.13
2023-02-03T15:48:53.444Z,46.86
2023-02-03T15:51:24.913Z,46.39
2023-02-03T15:53:57.686Z,46.87
2023-02-03T15:56:37.812Z,47.69
2023-02-03T15:59:06.915Z,47.58
2023-02-03T16:01:35.072Z,47.63
2023-02-03T16:04:12.570Z,47.37
2023-02-03T16:06:44.979Z,47.44
2023-02-03T16:09:28.962Z,47.37
2023-02-03T16:12:15.602Z,47.49
2023-02-03T16:14:44.363Z,47.74
2023-02-03T16:17:30.825Z,47.49
2023-02-03T16:20:23.906Z,48.09
2023-02-03T16:23:04.263Z,48.21
2023-02-03T16:25:34.207Z,47.76
2023-02-03T16:28:22.681Z,48.27
2023-02-03T16:31:13.457Z,49.06
2023-02-03T16:34:02.321Z,49.35
2023-02-03T16:36:49.160Z,50.34
2023-02-03T16:39:34.856Z,50.38
2023-02-03T16:42:27.826Z,49.62
2023-02-03T16:45:12.946Z,49.82
2023-02-03T16:47:58.647Z,50.50
2023-02-03T16:50:44.175Z,50.75
2023-02-03T16:53:16.906Z,51.10
2023-02-03T16:55:45.682Z,50.41
2023-02-03T16:58:14.022Z,51.31
2023-02-03T17:00:43.448Z,51.10
2023-02-03T17:03:13.354Z,52.17
2023-02-03T17:05:43.288Z,52.04
2023-02-03T17:08:12.013Z,51.91
2023-02-03T17:10:43.299Z,52.96
2023-02-03T17:13:12.229Z,52.38
2023-02-03T17:15:44.514Z,52.65
2023-02-03T17:18:12.732Z,52.79
2023-02-03T17:20:41.785Z,53.58
2023-02-03T17:23:10.541Z,53.79
2023-02-03T17:25:39.489Z,53.57
2023-02-03T17:28:10.023Z,54.08
2023-02-03T17:30:38.061Z,55.28
2023-02-03T17:33:12.077Z,55.17
2023-02-03T17:35:41.557Z,55.86
2023-02-03T17:38:11.240Z,56.23
2023-02-03T17:54:37.011Z,57.68
2023-02-03T17:57:05.048Z,59.01
2023-02-03T17:59:35.584Z,59.12
2023-02-03T18:02:03.528Z,59.74
2023-02-03T18:04:31.565Z,59.63
2023-02-03T18:06:59.578Z,60.11
2023-02-03T18:09:27.721Z,59.24
2023-02-03T18:11:55.690Z,59.93
2023-02-03T18:14:23.661Z,60.36
2023-02-03T18:16:53.043Z,60.37
2023-02-03T18:19:21.071Z,60.74
2023-02-03T18:21:49.008Z,60.63
2023-02-03T18:24:18.596Z,60.42
2023-02-03T18:26:50.212Z,60.73
2023-02-03T18:29:18.911Z,60.93
2023-02-03T18:31:46.975Z,60.58
2023-02-03T18:34:16.634Z,62.41
2023-02-03T18:36:44.656Z,61.88
2023-02-03T18:39:14.343Z,61.91
2023-02-03T18:41:42.408Z,62.39
2023-02-03T18:44:10.768Z,62.60
2023-02-03T18:46:38.727Z,62.74
2023-02-03T18:49:09.369Z,62.60
2023-02-03T18:51:38.828Z,63.63
2023-02-03T18:54:06.823Z,64.50
2023-02-03T18:56:36.002Z,64.79
2023-02-03T18:59:10.288Z,64.51
2023-02-03T19:01:39.825Z,64.66
2023-02-03T19:04:07.822Z,65.47
2023-02-03T19:06:36.388Z,65.21
2023-02-03T19:09:07.469Z,65.12
2023-02-03T19:11:35.835Z,65.40
2023-02-03T19:14:03.807Z,66.12
2023-02-03T19:16:31.954Z,66.38
2023-02-03T19:18:59.940Z,66.24
2023-02-03T19:21:27.926Z,67.10
2023-02-03T19:23:55.860Z,66.59
2023-02-03T19:26:25.448Z,67.07
2023-02-03T19:28:53.414Z,66.33
2023-02-03T19:31:21.616Z,66.24
2023-02-03T19:33:49.689Z,67.30
2023-02-03T19:36:17.951Z,66.87
2023-02-03T19:38:46.037Z,67.11
2023-02-03T19:41:14.012Z,67.19
2023-02-03T19:43:43.344Z,66.32
2023-02-03T19:46:11.603Z,66.58
2023-02-03T19:48:39.704Z,66.04
2023-02-03T19:51:08.200Z,66.58
2023-02-03T19:53:36.682Z,66.02
2023-02-03T19:56:05.003Z,66.21
2023-02-03T19:58:33.188Z,65.89
2023-02-03T20:01:02.607Z,66.23
2023-02-03T20:03:30.633Z,66.01
2023-02-03T20:05:59.579Z,66.06
2023-02-03T20:08:28.885Z,66.39
2023-02-03T20:10:56.859Z,66.73
2023-02-03T20:13:24.888Z,66.80
2023-02-03T20:15:52.905Z,66.73
2023-02-03T20:18:22.318Z,67.29
2023-02-03T20:20:51.729Z,66.99
2023-02-03T20:23:19.932Z,67.21
2023-02-03T20:25:50.235Z,66.93
2023-02-03T20:28:18.814Z,66.74
2023-02-03T20:30:47.431Z,66.89
2023-02-03T20:33:15.434Z,66.79
2023-02-03T20:35:44.947Z,66.85
2023-02-03T20:38:15.575Z,66.52
2023-02-03T20:40:46.010Z,66.83
2023-02-03T20:43:18.220Z,66.46
2023-02-03T20:45:46.810Z,67.19
2023-02-03T20:48:15.569Z,67.60
2023-02-03T20:50:47.238Z,67.60
2023-02-03T20:53:17.750Z,67.37
2023-02-03T20:55:45.799Z,67.79
2023-02-03T20:58:19.294Z,67.37
2023-02-03T21:00:49.562Z,67.13
2023-02-03T21:03:36.768Z,67.25
2023-02-03T21:06:14.633Z,68.01
2023-02-03T21:08:43.282Z,68.02
2023-02-03T21:11:14.352Z,68.34
2023-02-03T21:13:43.774Z,68.54
2023-02-03T21:16:19.054Z,67.77
2023-02-03T21:18:49.850Z,68.01
2023-02-03T21:21:25.056Z,67.76
2023-02-03T21:23:54.019Z,67.45
2023-02-03T21:26:24.262Z,68.89
2023-02-03T21:28:54.064Z,70.04
2023-02-03T21:31:28.407Z,69.40
2023-02-03T21:33:58.468Z,68.93
2023-02-03T21:36:29.884Z,68.56
2023-02-03T21:39:00.189Z,68.47
2023-02-03T21:41:33.167Z,68.28
2023-02-03T21:44:01.874Z,68.34
2023-02-03T21:46:32.860Z,68.33
2023-02-03T21:49:01.791Z,68.39
2023-02-03T21:51:36.282Z,68.32
2023-02-03T21:54:26.576Z,68.20
2023-02-03T21:56:55.183Z,68.15
2023-02-03T21:59:26.152Z,68.17
2023-02-03T22:01:54.342Z,67.96
2023-02-03T22:04:22.398Z,67.63
2023-02-03T22:06:53.952Z,67.92
2023-02-03T22:09:23.618Z,67.44
2023-02-03T22:11:52.056Z,67.62
2023-02-03T22:14:21.326Z,67.67
2023-02-03T22:16:49.449Z,68.17
2023-02-03T22:19:17.775Z,68.13
2023-02-03T22:21:47.808Z,68.30
2023-02-03T22:24:17.091Z,68.46
2023-02-03T22:26:45.039Z,68.08
2023-02-03T22:29:13.014Z,68.07
2023-02-03T22:31:42.832Z,67.95
2023-02-03T22:34:10.887Z,68.17
2023-02-03T22:36:39.151Z,67.95
2023-02-03T22:39:07.071Z,67.29
2023-02-03T22:41:36.337Z,67.85
2023-02-03T22:44:04.386Z,67.55
2023-02-03T22:46:32.574Z,67.64
2023-02-03T22:49:00.753Z,68.07
2023-02-03T22:51:28.732Z,68.09
2023-02-03T22:53:56.889Z,67.47
2023-02-03T22:56:24.797Z,67.69
2023-02-03T22:58:54.167Z,68.02
2023-02-03T23:01:22.175Z,68.70
2023-02-03T23:03:50.439Z,67.80
2023-02-03T23:06:18.686Z,68.43
2023-02-03T23:08:46.744Z,68.68
2023-02-03T23:11:14.827Z,68.04
2023-02-03T23:13:42.774Z,68.16
2023-02-03T23:16:12.568Z,68.57
2023-02-03T23:18:40.958Z,68.86
2023-02-03T23:21:08.884Z,68.79
2023-02-03T23:23:36.821Z,69.36
2023-02-03T23:26:04.912Z,69.32
2023-02-03T23:28:32.889Z,69.13
2023-02-03T23:31:00.895Z,69.65
2023-02-03T23:33:30.474Z,69.61
2023-02-03T23:35:57.677Z,69.76
2023-02-03T23:38:25.609Z,70.27
2023-02-03T23:40:54.284Z,69.77
2023-02-03T23:43:22.199Z,69.72
2023-02-03T23:45:50.145Z,69.64
2023-02-03T23:48:18.651Z,70.00
2023-02-03T23:50:49.108Z,70.50
2023-02-03T23:53:17.257Z,70.62
2023-02-03T23:55:45.213Z,69.76
2023-02-03T23:58:13.183Z,70.18
